sensor_id;sensor_type;location;lat;lon;timestamp;P1;durP1;ratioP1;P2;durP2;ratioP2
51034;SDS011;37062;52.546;13.230;2024-02-15T00:00:33;9.05;;;5.78;;
51034;SDS011;37062;52.546;13.230;2024-02-15T00:03:02;6.85;;;4.22;;
51034;SDS011;37062;52.546;13.230;2024-02-15T00:05:34;7.63;;;4.57;;
51034;SDS011;37062;52.546;13.230;2024-02-15T00:08:03;7.93;;;4.35;;
51034;SDS011;37062;52.546;13.230;2024-02-15T00:10:32;7.97;;;4.65;;
51034;SDS011;37062;52.546;13.230;2024-02-15T00:13:00;8.18;;;4.20;;
51034;SDS011;37062;52.546;13.230;2024-02-15T00:15:31;5.70;;;4.55;;
51034;SDS011;37062;52.546;13.230;2024-02-15T00:18:00;7.25;;;4.60;;
51034;SDS011;37062;52.546;13.230;2024-02-15T00:20:29;7.25;;;4.85;;
51034;SDS011;37062;52.546;13.230;2024-02-15T00:23:00;6.95;;;5.10;;
51034;SDS011;37062;52.546;13.230;2024-02-15T00:25:28;9.05;;;5.50;;
51034;SDS011;37062;52.546;13.230;2024-02-15T00:27:57;5.45;;;3.63;;
51034;SDS011;37062;52.546;13.230;2024-02-15T00:30:28;5.85;;;4.57;;
51034;SDS011;37062;52.546;13.230;2024-02-15T00:32:59;6.93;;;4.45;;
51034;SDS011;37062;52.546;13.230;2024-02-15T00:35:30;7.38;;;4.93;;
51034;SDS011;37062;52.546;13.230;2024-02-15T00:37:59;7.10;;;4.68;;
51034;SDS011;37062;52.546;13.230;2024-02-15T00:40:27;6.13;;;4.22;;
51034;SDS011;37062;52.546;13.230;2024-02-15T00:42:55;6.78;;;5.20;;
51034;SDS011;37062;52.546;13.230;2024-02-15T00:45:23;7.13;;;5.35;;
51034;SDS011;37062;52.546;13.230;2024-02-15T00:47:52;7.53;;;5.35;;
51034;SDS011;37062;52.546;13.230;2024-02-15T00:50:22;7.20;;;5.57;;
51034;SDS011;37062;52.546;13.230;2024-02-15T00:52:50;4.50;;;4.05;;
51034;SDS011;37062;52.546;13.230;2024-02-15T00:55:18;5.13;;;4.18;;
51034;SDS011;37062;52.546;13.230;2024-02-15T00:57:46;5.63;;;4.28;;
51034;SDS011;37062;52.546;13.230;2024-02-15T01:00:15;8.10;;;5.47;;
51034;SDS011;37062;52.546;13.230;2024-02-15T01:02:43;8.65;;;5.45;;
51034;SDS011;37062;52.546;13.230;2024-02-15T01:05:12;5.40;;;4.43;;
51034;SDS011;37062;52.546;13.230;2024-02-15T01:07:43;6.88;;;5.60;;
51034;SDS011;37062;52.546;13.230;2024-02-15T01:10:11;9.30;;;6.55;;
51034;SDS011;37062;52.546;13.230;2024-02-15T01:12:40;8.30;;;5.50;;
51034;SDS011;37062;52.546;13.230;2024-02-15T01:15:08;9.20;;;5.95;;
51034;SDS011;37062;52.546;13.230;2024-02-15T01:17:37;8.43;;;5.55;;
51034;SDS011;37062;52.546;13.230;2024-02-15T01:20:05;7.65;;;4.93;;
51034;SDS011;37062;52.546;13.230;2024-02-15T01:22:34;5.63;;;4.65;;
51034;SDS011;37062;52.546;13.230;2024-02-15T01:25:04;6.10;;;5.47;;
51034;SDS011;37062;52.546;13.230;2024-02-15T01:27:33;7.15;;;4.97;;
51034;SDS011;37062;52.546;13.230;2024-02-15T01:30:01;6.93;;;5.47;;
51034;SDS011;37062;52.546;13.230;2024-02-15T01:32:31;8.13;;;5.35;;
51034;SDS011;37062;52.546;13.230;2024-02-15T01:34:59;6.90;;;4.85;;
51034;SDS011;37062;52.546;13.230;2024-02-15T01:37:28;5.45;;;4.70;;
51034;SDS011;37062;52.546;13.230;2024-02-15T01:39:55;7.32;;;5.60;;
51034;SDS011;37062;52.546;13.230;2024-02-15T01:42:25;10.45;;;8.93;;
51034;SDS011;37062;52.546;13.230;2024-02-15T01:44:53;8.95;;;6.10;;
51034;SDS011;37062;52.546;13.230;2024-02-15T01:47:21;9.63;;;5.78;;
51034;SDS011;37062;52.546;13.230;2024-02-15T01:49:50;6.40;;;5.78;;
51034;SDS011;37062;52.546;13.230;2024-02-15T01:52:20;6.55;;;5.30;;
51034;SDS011;37062;52.546;13.230;2024-02-15T01:54:49;10.52;;;7.22;;
51034;SDS011;37062;52.546;13.230;2024-02-15T01:57:18;10.75;;;7.82;;
51034;SDS011;37062;52.546;13.230;2024-02-15T01:59:50;7.65;;;6.85;;
51034;SDS011;37062;52.546;13.230;2024-02-15T02:02:38;7.25;;;6.10;;
51034;SDS011;37062;52.546;13.230;2024-02-15T02:05:09;8.30;;;6.05;;
51034;SDS011;37062;52.546;13.230;2024-02-15T02:07:37;8.23;;;6.80;;
51034;SDS011;37062;52.546;13.230;2024-02-15T02:10:06;9.00;;;6.35;;
51034;SDS011;37062;52.546;13.230;2024-02-15T02:12:37;7.65;;;5.75;;
51034;SDS011;37062;52.546;13.230;2024-02-15T02:15:07;8.52;;;6.40;;
51034;SDS011;37062;52.546;13.230;2024-02-15T02:17:39;11.68;;;8.80;;
51034;SDS011;37062;52.546;13.230;2024-02-15T02:20:07;10.63;;;8.30;;
51034;SDS011;37062;52.546;13.230;2024-02-15T02:22:40;8.90;;;6.70;;
51034;SDS011;37062;52.546;13.230;2024-02-15T02:25:13;6.35;;;5.70;;
51034;SDS011;37062;52.546;13.230;2024-02-15T02:27:41;7.05;;;6.35;;
51034;SDS011;37062;52.546;13.230;2024-02-15T02:30:12;7.90;;;6.78;;
51034;SDS011;37062;52.546;13.230;2024-02-15T02:32:44;10.65;;;6.97;;
51034;SDS011;37062;52.546;13.230;2024-02-15T02:35:12;6.82;;;6.00;;
51034;SDS011;37062;52.546;13.230;2024-02-15T02:37:42;6.07;;;5.35;;
51034;SDS011;37062;52.546;13.230;2024-02-15T02:40:12;9.73;;;7.85;;
51034;SDS011;37062;52.546;13.230;2024-02-15T02:42:48;8.82;;;7.88;;
51034;SDS011;37062;52.546;13.230;2024-02-15T02:45:17;8.45;;;6.97;;
51034;SDS011;37062;52.546;13.230;2024-02-15T02:47:48;7.90;;;6.53;;
51034;SDS011;37062;52.546;13.230;2024-02-15T02:50:19;7.22;;;5.88;;
51034;SDS011;37062;52.546;13.230;2024-02-15T02:52:49;9.00;;;6.68;;
51034;SDS011;37062;52.546;13.230;2024-02-15T02:55:18;9.32;;;7.53;;
51034;SDS011;37062;52.546;13.230;2024-02-15T02:57:47;8.55;;;6.57;;
51034;SDS011;37062;52.546;13.230;2024-02-15T03:00:15;7.07;;;6.38;;
51034;SDS011;37062;52.546;13.230;2024-02-15T03:02:45;8.30;;;6.78;;
51034;SDS011;37062;52.546;13.230;2024-02-15T03:05:14;8.65;;;7.10;;
51034;SDS011;37062;52.546;13.230;2024-02-15T03:07:42;7.50;;;6.65;;
51034;SDS011;37062;52.546;13.230;2024-02-15T03:10:11;7.68;;;6.32;;
51034;SDS011;37062;52.546;13.230;2024-02-15T03:12:42;7.57;;;6.55;;
51034;SDS011;37062;52.546;13.230;2024-02-15T03:15:14;6.93;;;6.20;;
51034;SDS011;37062;52.546;13.230;2024-02-15T03:17:45;6.13;;;5.53;;
51034;SDS011;37062;52.546;13.230;2024-02-15T03:20:15;8.07;;;6.03;;
51034;SDS011;37062;52.546;13.230;2024-02-15T03:22:53;8.68;;;7.10;;
51034;SDS011;37062;52.546;13.230;2024-02-15T03:25:22;8.73;;;6.45;;
51034;SDS011;37062;52.546;13.230;2024-02-15T03:27:53;6.90;;;6.07;;
51034;SDS011;37062;52.546;13.230;2024-02-15T03:30:23;7.28;;;6.50;;
51034;SDS011;37062;52.546;13.230;2024-02-15T03:32:52;8.18;;;5.72;;
51034;SDS011;37062;52.546;13.230;2024-02-15T03:35:21;8.32;;;6.97;;
51034;SDS011;37062;52.546;13.230;2024-02-15T03:37:51;7.03;;;6.32;;
51034;SDS011;37062;52.546;13.230;2024-02-15T03:40:20;6.93;;;6.22;;
51034;SDS011;37062;52.546;13.230;2024-02-15T03:42:50;11.40;;;9.35;;
51034;SDS011;37062;52.546;13.230;2024-02-15T03:45:20;8.82;;;7.10;;
51034;SDS011;37062;52.546;13.230;2024-02-15T03:47:49;10.40;;;8.13;;
51034;SDS011;37062;52.546;13.230;2024-02-15T03:50:17;9.95;;;7.55;;
51034;SDS011;37062;52.546;13.230;2024-02-15T03:52:48;8.02;;;6.68;;
51034;SDS011;37062;52.546;13.230;2024-02-15T03:55:16;11.48;;;8.75;;
51034;SDS011;37062;52.546;13.230;2024-02-15T03:57:45;10.60;;;8.43;;
51034;SDS011;37062;52.546;13.230;2024-02-15T04:00:14;10.23;;;8.88;;
51034;SDS011;37062;52.546;13.230;2024-02-15T04:02:49;8.77;;;7.63;;
51034;SDS011;37062;52.546;13.230;2024-02-15T04:05:17;12.77;;;10.55;;
51034;SDS011;37062;52.546;13.230;2024-02-15T04:07:48;9.23;;;8.23;;
51034;SDS011;37062;52.546;13.230;2024-02-15T04:10:16;13.13;;;9.50;;
51034;SDS011;37062;52.546;13.230;2024-02-15T04:12:45;10.63;;;9.00;;
51034;SDS011;37062;52.546;13.230;2024-02-15T04:15:13;8.50;;;7.65;;
51034;SDS011;37062;52.546;13.230;2024-02-15T04:17:44;8.60;;;7.13;;
51034;SDS011;37062;52.546;13.230;2024-02-15T04:20:14;9.63;;;7.93;;
51034;SDS011;37062;52.546;13.230;2024-02-15T04:22:44;9.35;;;7.85;;
51034;SDS011;37062;52.546;13.230;2024-02-15T04:25:14;11.48;;;8.70;;
51034;SDS011;37062;52.546;13.230;2024-02-15T04:27:44;9.80;;;8.18;;
51034;SDS011;37062;52.546;13.230;2024-02-15T04:30:14;8.55;;;7.72;;
51034;SDS011;37062;52.546;13.230;2024-02-15T04:32:43;9.32;;;8.30;;
51034;SDS011;37062;52.546;13.230;2024-02-15T04:35:15;11.50;;;9.23;;
51034;SDS011;37062;52.546;13.230;2024-02-15T04:37:43;8.70;;;7.80;;
51034;SDS011;37062;52.546;13.230;2024-02-15T04:40:13;8.85;;;7.70;;
51034;SDS011;37062;52.546;13.230;2024-02-15T04:42:41;8.35;;;7.22;;
51034;SDS011;37062;52.546;13.230;2024-02-15T04:45:12;9.65;;;8.18;;
51034;SDS011;37062;52.546;13.230;2024-02-15T04:47:42;11.38;;;9.70;;
51034;SDS011;37062;52.546;13.230;2024-02-15T04:50:12;12.30;;;8.80;;
51034;SDS011;37062;52.546;13.230;2024-02-15T04:52:46;10.63;;;8.25;;
51034;SDS011;37062;52.546;13.230;2024-02-15T04:55:16;11.25;;;8.70;;
51034;SDS011;37062;52.546;13.230;2024-02-15T04:57:45;14.70;;;11.25;;
51034;SDS011;37062;52.546;13.230;2024-02-15T05:00:15;10.85;;;8.95;;
51034;SDS011;37062;52.546;13.230;2024-02-15T05:02:47;10.30;;;9.20;;
51034;SDS011;37062;52.546;13.230;2024-02-15T05:05:18;12.27;;;9.55;;
51034;SDS011;37062;52.546;13.230;2024-02-15T05:07:47;10.50;;;9.32;;
51034;SDS011;37062;52.546;13.230;2024-02-15T05:10:16;9.80;;;8.50;;
51034;SDS011;37062;52.546;13.230;2024-02-15T05:12:45;11.30;;;7.93;;
51034;SDS011;37062;52.546;13.230;2024-02-15T05:15:15;10.02;;;8.25;;
51034;SDS011;37062;52.546;13.230;2024-02-15T05:17:44;18.65;;;14.13;;
51034;SDS011;37062;52.546;13.230;2024-02-15T05:20:15;10.95;;;9.32;;
51034;SDS011;37062;52.546;13.230;2024-02-15T05:22:45;8.43;;;7.32;;
51034;SDS011;37062;52.546;13.230;2024-02-15T05:25:16;11.00;;;8.93;;
51034;SDS011;37062;52.546;13.230;2024-02-15T05:27:51;12.82;;;9.93;;
51034;SDS011;37062;52.546;13.230;2024-02-15T05:30:23;11.90;;;8.95;;
51034;SDS011;37062;52.546;13.230;2024-02-15T05:32:51;11.13;;;9.00;;
51034;SDS011;37062;52.546;13.230;2024-02-15T05:35:21;8.80;;;7.88;;
51034;SDS011;37062;52.546;13.230;2024-02-15T05:37:51;10.93;;;8.90;;
51034;SDS011;37062;52.546;13.230;2024-02-15T05:40:20;10.20;;;9.00;;
51034;SDS011;37062;52.546;13.230;2024-02-15T05:42:48;12.38;;;9.48;;
51034;SDS011;37062;52.546;13.230;2024-02-15T05:45:29;10.68;;;9.00;;
51034;SDS011;37062;52.546;13.230;2024-02-15T05:48:01;9.30;;;8.07;;
51034;SDS011;37062;52.546;13.230;2024-02-15T05:50:33;8.25;;;7.38;;
51034;SDS011;37062;52.546;13.230;2024-02-15T05:53:03;11.13;;;8.88;;
51034;SDS011;37062;52.546;13.230;2024-02-15T05:55:34;10.05;;;8.70;;
51034;SDS011;37062;52.546;13.230;2024-02-15T05:58:04;10.95;;;8.20;;
51034;SDS011;37062;52.546;13.230;2024-02-15T06:00:34;9.45;;;7.95;;
51034;SDS011;37062;52.546;13.230;2024-02-15T06:03:05;10.73;;;7.80;;
51034;SDS011;37062;52.546;13.230;2024-02-15T06:05:36;9.93;;;7.82;;
51034;SDS011;37062;52.546;13.230;2024-02-15T06:08:06;7.93;;;7.13;;
51034;SDS011;37062;52.546;13.230;2024-02-15T06:10:34;9.25;;;7.95;;
51034;SDS011;37062;52.546;13.230;2024-02-15T06:13:03;8.98;;;7.53;;
51034;SDS011;37062;52.546;13.230;2024-02-15T06:15:31;8.43;;;7.43;;
51034;SDS011;37062;52.546;13.230;2024-02-15T06:18:00;8.02;;;7.10;;
51034;SDS011;37062;52.546;13.230;2024-02-15T06:20:30;8.98;;;7.75;;
51034;SDS011;37062;52.546;13.230;2024-02-15T06:23:02;11.50;;;8.32;;
51034;SDS011;37062;52.546;13.230;2024-02-15T06:25:32;8.05;;;7.00;;
51034;SDS011;37062;52.546;13.230;2024-02-15T06:28:01;9.88;;;7.93;;
51034;SDS011;37062;52.546;13.230;2024-02-15T06:30:39;10.00;;;7.70;;
51034;SDS011;37062;52.546;13.230;2024-02-15T06:33:25;8.57;;;7.68;;
51034;SDS011;37062;52.546;13.230;2024-02-15T06:36:11;8.65;;;7.45;;
51034;SDS011;37062;52.546;13.230;2024-02-15T06:38:57;11.43;;;9.02;;
51034;SDS011;37062;52.546;13.230;2024-02-15T06:41:44;8.27;;;7.40;;
51034;SDS011;37062;52.546;13.230;2024-02-15T06:44:12;10.45;;;8.23;;
51034;SDS011;37062;52.546;13.230;2024-02-15T06:46:41;9.15;;;7.88;;
51034;SDS011;37062;52.546;13.230;2024-02-15T06:49:09;10.82;;;9.07;;
51034;SDS011;37062;52.546;13.230;2024-02-15T06:51:37;12.30;;;9.93;;
51034;SDS011;37062;52.546;13.230;2024-02-15T06:54:06;12.52;;;9.68;;
51034;SDS011;37062;52.546;13.230;2024-02-15T06:56:35;12.80;;;9.98;;
51034;SDS011;37062;52.546;13.230;2024-02-15T06:59:07;10.80;;;8.85;;
51034;SDS011;37062;52.546;13.230;2024-02-15T07:01:37;8.88;;;7.65;;
51034;SDS011;37062;52.546;13.230;2024-02-15T07:04:05;11.68;;;9.63;;
51034;SDS011;37062;52.546;13.230;2024-02-15T07:06:35;10.02;;;7.80;;
51034;SDS011;37062;52.546;13.230;2024-02-15T07:09:04;11.80;;;7.78;;
51034;SDS011;37062;52.546;13.230;2024-02-15T07:11:33;8.57;;;7.30;;
51034;SDS011;37062;52.546;13.230;2024-02-15T07:14:01;12.20;;;9.60;;
51034;SDS011;37062;52.546;13.230;2024-02-15T07:16:32;9.45;;;7.40;;
51034;SDS011;37062;52.546;13.230;2024-02-15T07:19:01;10.23;;;8.13;;
51034;SDS011;37062;52.546;13.230;2024-02-15T07:21:30;8.70;;;7.40;;
51034;SDS011;37062;52.546;13.230;2024-02-15T07:23:58;11.10;;;8.23;;
51034;SDS011;37062;52.546;13.230;2024-02-15T07:26:26;9.10;;;6.63;;
51034;SDS011;37062;52.546;13.230;2024-02-15T07:28:55;8.27;;;6.57;;
51034;SDS011;37062;52.546;13.230;2024-02-15T07:31:27;9.85;;;8.00;;
51034;SDS011;37062;52.546;13.230;2024-02-15T07:33:57;9.30;;;7.63;;
51034;SDS011;37062;52.546;13.230;2024-02-15T07:36:26;7.90;;;6.85;;
51034;SDS011;37062;52.546;13.230;2024-02-15T07:38:55;10.70;;;7.25;;
51034;SDS011;37062;52.546;13.230;2024-02-15T07:41:28;6.90;;;6.20;;
51034;SDS011;37062;52.546;13.230;2024-02-15T07:43:57;10.70;;;8.23;;
51034;SDS011;37062;52.546;13.230;2024-02-15T07:46:27;12.00;;;9.07;;
51034;SDS011;37062;52.546;13.230;2024-02-15T07:48:55;8.38;;;7.50;;
51034;SDS011;37062;52.546;13.230;2024-02-15T07:51:26;9.75;;;6.90;;
51034;SDS011;37062;52.546;13.230;2024-02-15T07:53:54;8.75;;;6.68;;
51034;SDS011;37062;52.546;13.230;2024-02-15T07:56:22;9.15;;;7.72;;
51034;SDS011;37062;52.546;13.230;2024-02-15T07:58:50;8.32;;;7.18;;
51034;SDS011;37062;52.546;13.230;2024-02-15T08:01:20;8.25;;;6.85;;
51034;SDS011;37062;52.546;13.230;2024-02-15T08:03:51;10.82;;;8.10;;
51034;SDS011;37062;52.546;13.230;2024-02-15T08:06:23;9.13;;;6.75;;
51034;SDS011;37062;52.546;13.230;2024-02-15T08:08:55;9.90;;;7.05;;
51034;SDS011;37062;52.546;13.230;2024-02-15T08:11:23;8.18;;;7.15;;
51034;SDS011;37062;52.546;13.230;2024-02-15T08:13:53;7.78;;;6.45;;
51034;SDS011;37062;52.546;13.230;2024-02-15T08:16:25;8.32;;;6.43;;
51034;SDS011;37062;52.546;13.230;2024-02-15T08:18:54;7.63;;;6.18;;
51034;SDS011;37062;52.546;13.230;2024-02-15T08:21:29;9.65;;;8.15;;
51034;SDS011;37062;52.546;13.230;2024-02-15T08:23:59;7.50;;;6.20;;
51034;SDS011;37062;52.546;13.230;2024-02-15T08:26:32;9.80;;;8.35;;
51034;SDS011;37062;52.546;13.230;2024-02-15T08:29:01;9.63;;;7.40;;
51034;SDS011;37062;52.546;13.230;2024-02-15T08:31:30;8.18;;;7.03;;
51034;SDS011;37062;52.546;13.230;2024-02-15T08:33:59;11.35;;;7.68;;
51034;SDS011;37062;52.546;13.230;2024-02-15T08:36:29;8.43;;;7.15;;
51034;SDS011;37062;52.546;13.230;2024-02-15T08:38:58;10.00;;;6.57;;
51034;SDS011;37062;52.546;13.230;2024-02-15T08:41:26;10.45;;;7.47;;
51034;SDS011;37062;52.546;13.230;2024-02-15T08:43:55;9.02;;;7.07;;
51034;SDS011;37062;52.546;13.230;2024-02-15T08:46:25;6.57;;;5.82;;
51034;SDS011;37062;52.546;13.230;2024-02-15T08:48:53;6.88;;;5.03;;
51034;SDS011;37062;52.546;13.230;2024-02-15T08:51:22;7.22;;;4.65;;
51034;SDS011;37062;52.546;13.230;2024-02-15T08:53:52;5.80;;;5.20;;
51034;SDS011;37062;52.546;13.230;2024-02-15T08:56:24;6.38;;;5.50;;
51034;SDS011;37062;52.546;13.230;2024-02-15T08:58:52;8.73;;;5.72;;
51034;SDS011;37062;52.546;13.230;2024-02-15T09:01:20;8.52;;;5.97;;
51034;SDS011;37062;52.546;13.230;2024-02-15T09:03:49;6.47;;;5.82;;
51034;SDS011;37062;52.546;13.230;2024-02-15T09:06:17;7.82;;;5.85;;
51034;SDS011;37062;52.546;13.230;2024-02-15T09:08:45;6.85;;;6.15;;
51034;SDS011;37062;52.546;13.230;2024-02-15T09:11:15;7.32;;;6.28;;
51034;SDS011;37062;52.546;13.230;2024-02-15T09:13:44;7.18;;;5.70;;
51034;SDS011;37062;52.546;13.230;2024-02-15T09:16:13;8.40;;;6.60;;
51034;SDS011;37062;52.546;13.230;2024-02-15T09:18:41;7.95;;;5.80;;
51034;SDS011;37062;52.546;13.230;2024-02-15T09:21:12;6.97;;;5.55;;
51034;SDS011;37062;52.546;13.230;2024-02-15T09:23:41;6.93;;;5.97;;
51034;SDS011;37062;52.546;13.230;2024-02-15T09:26:09;8.07;;;6.03;;
51034;SDS011;37062;52.546;13.230;2024-02-15T09:28:40;6.57;;;5.85;;
51034;SDS011;37062;52.546;13.230;2024-02-15T09:31:09;8.05;;;6.20;;
51034;SDS011;37062;52.546;13.230;2024-02-15T09:33:40;6.53;;;5.45;;
51034;SDS011;37062;52.546;13.230;2024-02-15T09:36:08;4.97;;;4.47;;
51034;SDS011;37062;52.546;13.230;2024-02-15T09:38:38;5.70;;;4.93;;
51034;SDS011;37062;52.546;13.230;2024-02-15T09:41:07;7.65;;;5.35;;
51034;SDS011;37062;52.546;13.230;2024-02-15T09:43:35;8.77;;;5.90;;
51034;SDS011;37062;52.546;13.230;2024-02-15T09:46:05;7.18;;;5.75;;
51034;SDS011;37062;52.546;13.230;2024-02-15T09:48:33;7.97;;;7.07;;
51034;SDS011;37062;52.546;13.230;2024-02-15T09:51:03;6.50;;;5.10;;
51034;SDS011;37062;52.546;13.230;2024-02-15T09:53:32;9.20;;;7.13;;
51034;SDS011;37062;52.546;13.230;2024-02-15T09:56:01;6.72;;;5.32;;
51034;SDS011;37062;52.546;13.230;2024-02-15T09:58:33;5.32;;;4.43;;
51034;SDS011;37062;52.546;13.230;2024-02-15T10:01:01;6.50;;;4.72;;
51034;SDS011;37062;52.546;13.230;2024-02-15T10:03:36;6.28;;;4.65;;
51034;SDS011;37062;52.546;13.230;2024-02-15T10:06:07;5.53;;;4.85;;
51034;SDS011;37062;52.546;13.230;2024-02-15T10:08:35;6.75;;;5.25;;
51034;SDS011;37062;52.546;13.230;2024-02-15T10:11:05;6.25;;;5.10;;
51034;SDS011;37062;52.546;13.230;2024-02-15T10:13:35;5.72;;;5.13;;
51034;SDS011;37062;52.546;13.230;2024-02-15T10:16:18;5.72;;;4.65;;
51034;SDS011;37062;52.546;13.230;2024-02-15T10:18:51;10.13;;;6.32;;
51034;SDS011;37062;52.546;13.230;2024-02-15T10:21:23;7.13;;;5.22;;
51034;SDS011;37062;52.546;13.230;2024-02-15T10:24:04;7.65;;;5.55;;
51034;SDS011;37062;52.546;13.230;2024-02-15T10:26:33;8.75;;;5.93;;
51034;SDS011;37062;52.546;13.230;2024-02-15T10:29:06;5.10;;;4.47;;
51034;SDS011;37062;52.546;13.230;2024-02-15T10:31:40;5.53;;;4.43;;
51034;SDS011;37062;52.546;13.230;2024-02-15T10:34:20;4.35;;;3.95;;
51034;SDS011;37062;52.546;13.230;2024-02-15T10:36:49;8.07;;;6.68;;
51034;SDS011;37062;52.546;13.230;2024-02-15T10:39:19;8.27;;;6.10;;
51034;SDS011;37062;52.546;13.230;2024-02-15T10:41:48;4.25;;;3.85;;
51034;SDS011;37062;52.546;13.230;2024-02-15T10:44:18;4.28;;;3.88;;
51034;SDS011;37062;52.546;13.230;2024-02-15T10:46:49;3.88;;;3.47;;
51034;SDS011;37062;52.546;13.230;2024-02-15T10:49:18;5.72;;;4.00;;
51034;SDS011;37062;52.546;13.230;2024-02-15T10:51:52;5.97;;;4.60;;
51034;SDS011;37062;52.546;13.230;2024-02-15T10:54:28;7.93;;;6.13;;
51034;SDS011;37062;52.546;13.230;2024-02-15T10:57:08;5.32;;;4.00;;
51034;SDS011;37062;52.546;13.230;2024-02-15T10:59:38;8.85;;;5.70;;
51034;SDS011;37062;52.546;13.230;2024-02-15T11:02:20;6.72;;;5.10;;
51034;SDS011;37062;52.546;13.230;2024-02-15T11:04:59;5.90;;;4.38;;
51034;SDS011;37062;52.546;13.230;2024-02-15T11:07:31;3.17;;;2.80;;
51034;SDS011;37062;52.546;13.230;2024-02-15T11:10:01;3.38;;;2.85;;
51034;SDS011;37062;52.546;13.230;2024-02-15T11:12:34;4.63;;;3.22;;
51034;SDS011;37062;52.546;13.230;2024-02-15T11:15:04;8.82;;;5.95;;
51034;SDS011;37062;52.546;13.230;2024-02-15T11:17:47;3.22;;;2.83;;
51034;SDS011;37062;52.546;13.230;2024-02-15T11:23:23;2.90;;;2.50;;
51034;SDS011;37062;52.546;13.230;2024-02-15T11:26:02;5.07;;;3.08;;
51034;SDS011;37062;52.546;13.230;2024-02-15T11:28:38;4.57;;;2.90;;
51034;SDS011;37062;52.546;13.230;2024-02-15T11:31:07;6.10;;;4.00;;
51034;SDS011;37062;52.546;13.230;2024-02-15T11:33:37;3.95;;;3.00;;
51034;SDS011;37062;52.546;13.230;2024-02-15T11:36:07;4.13;;;3.05;;
51034;SDS011;37062;52.546;13.230;2024-02-15T11:38:37;2.85;;;2.55;;
51034;SDS011;37062;52.546;13.230;2024-02-15T11:41:08;4.70;;;4.00;;
51034;SDS011;37062;52.546;13.230;2024-02-15T11:43:47;3.17;;;2.80;;
51034;SDS011;37062;52.546;13.230;2024-02-15T11:46:24;5.32;;;2.95;;
51034;SDS011;37062;52.546;13.230;2024-02-15T11:48:58;4.15;;;2.85;;
51034;SDS011;37062;52.546;13.230;2024-02-15T11:51:28;3.50;;;2.50;;
51034;SDS011;37062;52.546;13.230;2024-02-15T11:54:03;3.75;;;3.03;;
51034;SDS011;37062;52.546;13.230;2024-02-15T11:56:51;3.03;;;2.53;;
51034;SDS011;37062;52.546;13.230;2024-02-15T11:59:40;3.00;;;2.70;;
51034;SDS011;37062;52.546;13.230;2024-02-15T12:02:39;5.75;;;3.05;;
51034;SDS011;37062;52.546;13.230;2024-02-15T12:05:26;4.03;;;2.90;;
51034;SDS011;37062;52.546;13.230;2024-02-15T12:08:12;4.88;;;2.90;;
51034;SDS011;37062;52.546;13.230;2024-02-15T12:10:58;3.22;;;2.58;;
51034;SDS011;37062;52.546;13.230;2024-02-15T12:13:43;3.60;;;2.90;;
51034;SDS011;37062;52.546;13.230;2024-02-15T12:16:35;3.33;;;1.98;;
51034;SDS011;37062;52.546;13.230;2024-02-15T12:19:21;6.80;;;3.83;;
51034;SDS011;37062;52.546;13.230;2024-02-15T12:21:51;4.57;;;2.50;;
51034;SDS011;37062;52.546;13.230;2024-02-15T12:24:20;2.90;;;2.50;;
51034;SDS011;37062;52.546;13.230;2024-02-15T12:26:59;4.10;;;3.45;;
51034;SDS011;37062;52.546;13.230;2024-02-15T12:29:28;2.92;;;1.90;;
51034;SDS011;37062;52.546;13.230;2024-02-15T12:31:56;2.97;;;1.80;;
51034;SDS011;37062;52.546;13.230;2024-02-15T12:34:26;2.88;;;1.60;;
51034;SDS011;37062;52.546;13.230;2024-02-15T12:37:05;2.42;;;1.60;;
51034;SDS011;37062;52.546;13.230;2024-02-15T12:39:35;1.92;;;1.50;;
51034;SDS011;37062;52.546;13.230;2024-02-15T12:42:06;2.20;;;1.83;;
51034;SDS011;37062;52.546;13.230;2024-02-15T12:44:36;2.10;;;1.90;;
51034;SDS011;37062;52.546;13.230;2024-02-15T12:47:04;2.22;;;2.03;;
51034;SDS011;37062;52.546;13.230;2024-02-15T12:49:32;3.35;;;1.65;;
51034;SDS011;37062;52.546;13.230;2024-02-15T12:55:06;1.92;;;1.63;;
51034;SDS011;37062;52.546;13.230;2024-02-15T12:57:35;4.97;;;2.13;;
51034;SDS011;37062;52.546;13.230;2024-02-15T13:00:07;5.28;;;2.47;;
51034;SDS011;37062;52.546;13.230;2024-02-15T13:02:40;6.25;;;2.90;;
51034;SDS011;37062;52.546;13.230;2024-02-15T13:05:13;3.78;;;2.50;;
51034;SDS011;37062;52.546;13.230;2024-02-15T13:07:42;4.10;;;2.28;;
51034;SDS011;37062;52.546;13.230;2024-02-15T13:10:11;4.45;;;3.38;;
51034;SDS011;37062;52.546;13.230;2024-02-15T13:12:41;3.45;;;2.90;;
51034;SDS011;37062;52.546;13.230;2024-02-15T13:15:10;8.75;;;6.47;;
51034;SDS011;37062;52.546;13.230;2024-02-15T13:17:43;6.07;;;3.47;;
51034;SDS011;37062;52.546;13.230;2024-02-15T13:20:12;3.92;;;3.05;;
51034;SDS011;37062;52.546;13.230;2024-02-15T13:22:41;5.47;;;4.00;;
51034;SDS011;37062;52.546;13.230;2024-02-15T13:25:11;5.45;;;3.65;;
51034;SDS011;37062;52.546;13.230;2024-02-15T13:27:39;5.50;;;3.03;;
51034;SDS011;37062;52.546;13.230;2024-02-15T13:30:09;3.20;;;2.38;;
51034;SDS011;37062;52.546;13.230;2024-02-15T13:32:39;5.60;;;2.60;;
51034;SDS011;37062;52.546;13.230;2024-02-15T13:35:09;4.13;;;1.50;;
51034;SDS011;37062;52.546;13.230;2024-02-15T13:37:42;2.90;;;1.80;;
51034;SDS011;37062;52.546;13.230;2024-02-15T13:40:13;4.72;;;2.20;;
51034;SDS011;37062;52.546;13.230;2024-02-15T13:42:43;2.58;;;1.60;;
51034;SDS011;37062;52.546;13.230;2024-02-15T13:45:16;3.60;;;1.60;;
51034;SDS011;37062;52.546;13.230;2024-02-15T13:47:45;4.00;;;2.35;;
51034;SDS011;37062;52.546;13.230;2024-02-15T13:50:17;4.97;;;2.40;;
51034;SDS011;37062;52.546;13.230;2024-02-15T13:52:47;2.47;;;1.63;;
51034;SDS011;37062;52.546;13.230;2024-02-15T13:55:16;2.28;;;1.52;;
51034;SDS011;37062;52.546;13.230;2024-02-15T13:57:45;2.88;;;2.20;;
51034;SDS011;37062;52.546;13.230;2024-02-15T14:00:15;5.07;;;3.90;;
51034;SDS011;37062;52.546;13.230;2024-02-15T14:02:49;3.85;;;2.72;;
51034;SDS011;37062;52.546;13.230;2024-02-15T14:05:17;7.07;;;4.90;;
51034;SDS011;37062;52.546;13.230;2024-02-15T14:07:48;4.28;;;3.20;;
51034;SDS011;37062;52.546;13.230;2024-02-15T14:10:18;6.93;;;3.58;;
51034;SDS011;37062;52.546;13.230;2024-02-15T14:12:47;6.63;;;2.30;;
51034;SDS011;37062;52.546;13.230;2024-02-15T14:15:16;2.28;;;1.75;;
51034;SDS011;37062;52.546;13.230;2024-02-15T14:17:45;2.60;;;1.90;;
51034;SDS011;37062;52.546;13.230;2024-02-15T14:20:13;2.63;;;2.03;;
51034;SDS011;37062;52.546;13.230;2024-02-15T14:22:43;2.80;;;1.60;;
51034;SDS011;37062;52.546;13.230;2024-02-15T14:25:13;2.45;;;1.40;;
51034;SDS011;37062;52.546;13.230;2024-02-15T14:27:42;2.78;;;1.80;;
51034;SDS011;37062;52.546;13.230;2024-02-15T14:30:10;2.80;;;1.70;;
51034;SDS011;37062;52.546;13.230;2024-02-15T14:32:56;2.42;;;1.48;;
51034;SDS011;37062;52.546;13.230;2024-02-15T14:35:30;3.15;;;1.40;;
51034;SDS011;37062;52.546;13.230;2024-02-15T14:38:01;3.20;;;1.45;;
51034;SDS011;37062;52.546;13.230;2024-02-15T14:40:34;1.42;;;1.33;;
51034;SDS011;37062;52.546;13.230;2024-02-15T14:43:07;1.63;;;1.27;;
51034;SDS011;37062;52.546;13.230;2024-02-15T14:45:38;2.78;;;2.28;;
51034;SDS011;37062;52.546;13.230;2024-02-15T14:48:07;3.10;;;2.60;;
51034;SDS011;37062;52.546;13.230;2024-02-15T14:50:36;3.42;;;2.72;;
51034;SDS011;37062;52.546;13.230;2024-02-15T14:53:05;3.45;;;2.08;;
51034;SDS011;37062;52.546;13.230;2024-02-15T14:55:36;2.22;;;1.80;;
51034;SDS011;37062;52.546;13.230;2024-02-15T14:58:06;2.80;;;2.05;;